sensor_id;sensor_type;location;lat;lon;timestamp;temperature;humidity
44851;DHT22;30583;48.714;9.386;2023-04-28T00:01:27;14.00;60.90
44851;DHT22;30583;48.714;9.386;2023-04-28T00:03:53;13.90;60.90
44851;DHT22;30583;48.714;9.386;2023-04-28T00:06:19;13.80;61.40
44851;DHT22;30583;48.714;9.386;2023-04-28T00:08:45;13.60;62.10
44851;DHT22;30583;48.714;9.386;2023-04-28T00:11:10;13.70;62.20
44851;DHT22;30583;48.714;9.386;2023-04-28T00:13:37;13.80;61.50
44851;DHT22;30583;48.714;9.386;2023-04-28T00:16:03;13.80;61.30
44851;DHT22;30583;48.714;9.386;2023-04-28T00:18:28;13.70;61.50
44851;DHT22;30583;48.714;9.386;2023-04-28T00:20:55;13.90;61.60
44851;DHT22;30583;48.714;9.386;2023-04-28T00:23:20;13.80;61.70
44851;DHT22;30583;48.714;9.386;2023-04-28T00:25:53;13.70;61.70
44851;DHT22;30583;48.714;9.386;2023-04-28T00:28:19;13.50;62.60
44851;DHT22;30583;48.714;9.386;2023-04-28T00:30:45;13.60;62.50
44851;DHT22;30583;48.714;9.386;2023-04-28T00:33:11;13.70;62.60
44851;DHT22;30583;48.714;9.386;2023-04-28T00:35:38;13.90;61.90
44851;DHT22;30583;48.714;9.386;2023-04-28T00:38:03;13.90;61.90
44851;DHT22;30583;48.714;9.386;2023-04-28T00:40:37;14.00;61.10
44851;DHT22;30583;48.714;9.386;2023-04-28T00:43:03;13.90;61.40
44851;DHT22;30583;48.714;9.386;2023-04-28T00:45:29;13.70;61.10
44851;DHT22;30583;48.714;9.386;2023-04-28T00:47:55;13.90;61.10
44851;DHT22;30583;48.714;9.386;2023-04-28T00:50:22;13.80;61.50
44851;DHT22;30583;48.714;9.386;2023-04-28T00:52:48;13.90;61.60
44851;DHT22;30583;48.714;9.386;2023-04-28T00:55:15;13.90;62.00
44851;DHT22;30583;48.714;9.386;2023-04-28T00:57:41;13.70;62.10
44851;DHT22;30583;48.714;9.386;2023-04-28T01:00:08;13.70;62.30
44851;DHT22;30583;48.714;9.386;2023-04-28T01:02:34;13.70;63.10
44851;DHT22;30583;48.714;9.386;2023-04-28T01:05:01;13.70;63.30
44851;DHT22;30583;48.714;9.386;2023-04-28T01:07:27;13.80;62.60
44851;DHT22;30583;48.714;9.386;2023-04-28T01:09:53;13.60;63.10
44851;DHT22;30583;48.714;9.386;2023-04-28T01:12:19;13.60;63.00
44851;DHT22;30583;48.714;9.386;2023-04-28T01:14:45;13.60;63.20
44851;DHT22;30583;48.714;9.386;2023-04-28T01:17:11;13.60;63.00
44851;DHT22;30583;48.714;9.386;2023-04-28T01:19:37;13.70;62.80
44851;DHT22;30583;48.714;9.386;2023-04-28T01:22:02;13.80;62.90
44851;DHT22;30583;48.714;9.386;2023-04-28T01:24:29;13.60;63.10
44851;DHT22;30583;48.714;9.386;2023-04-28T01:26:54;13.80;62.50
44851;DHT22;30583;48.714;9.386;2023-04-28T01:29:20;13.90;61.90
44851;DHT22;30583;48.714;9.386;2023-04-28T01:31:45;13.70;62.20
44851;DHT22;30583;48.714;9.386;2023-04-28T01:34:11;13.80;62.30
44851;DHT22;30583;48.714;9.386;2023-04-28T01:36:37;13.50;63.00
44851;DHT22;30583;48.714;9.386;2023-04-28T01:39:02;13.80;62.10
44851;DHT22;30583;48.714;9.386;2023-04-28T01:41:28;13.80;62.60
44851;DHT22;30583;48.714;9.386;2023-04-28T01:43:54;13.90;62.40
44851;DHT22;30583;48.714;9.386;2023-04-28T01:46:19;13.70;63.00
44851;DHT22;30583;48.714;9.386;2023-04-28T01:48:45;13.70;62.30
44851;DHT22;30583;48.714;9.386;2023-04-28T01:51:11;13.60;62.70
44851;DHT22;30583;48.714;9.386;2023-04-28T01:53:37;13.60;62.70
44851;DHT22;30583;48.714;9.386;2023-04-28T01:58:47;13.60;63.10
44851;DHT22;30583;48.714;9.386;2023-04-28T02:01:13;13.80;62.00
44851;DHT22;30583;48.714;9.386;2023-04-28T02:03:38;13.60;63.20
44851;DHT22;30583;48.714;9.386;2023-04-28T02:06:04;13.50;63.30
44851;DHT22;30583;48.714;9.386;2023-04-28T02:08:29;13.60;63.60
44851;DHT22;30583;48.714;9.386;2023-04-28T02:10:56;13.70;63.00
44851;DHT22;30583;48.714;9.386;2023-04-28T02:13:22;13.80;63.10
44851;DHT22;30583;48.714;9.386;2023-04-28T02:15:48;13.90;62.20
44851;DHT22;30583;48.714;9.386;2023-04-28T02:18:13;13.60;63.00
44851;DHT22;30583;48.714;9.386;2023-04-28T02:20:39;13.70;63.30
44851;DHT22;30583;48.714;9.386;2023-04-28T02:23:05;13.70;63.10
44851;DHT22;30583;48.714;9.386;2023-04-28T02:25:31;13.70;63.00
44851;DHT22;30583;48.714;9.386;2023-04-28T02:27:56;13.90;62.40
44851;DHT22;30583;48.714;9.386;2023-04-28T02:30:22;13.90;62.90
44851;DHT22;30583;48.714;9.386;2023-04-28T02:32:47;13.70;63.60
44851;DHT22;30583;48.714;9.386;2023-04-28T02:35:13;13.70;63.40
44851;DHT22;30583;48.714;9.386;2023-04-28T02:37:39;13.70;63.80
44851;DHT22;30583;48.714;9.386;2023-04-28T02:40:05;13.60;64.10
44851;DHT22;30583;48.714;9.386;2023-04-28T02:42:31;13.90;63.50
44851;DHT22;30583;48.714;9.386;2023-04-28T02:44:57;13.90;63.30
44851;DHT22;30583;48.714;9.386;2023-04-28T02:47:22;13.80;63.70
44851;DHT22;30583;48.714;9.386;2023-04-28T02:49:48;13.70;63.90
44851;DHT22;30583;48.714;9.386;2023-04-28T02:52:13;13.50;64.70
44851;DHT22;30583;48.714;9.386;2023-04-28T02:54:39;13.70;64.10
44851;DHT22;30583;48.714;9.386;2023-04-28T02:57:05;13.60;64.60
44851;DHT22;30583;48.714;9.386;2023-04-28T02:59:31;13.70;64.70
44851;DHT22;30583;48.714;9.386;2023-04-28T03:01:57;13.60;64.90
44851;DHT22;30583;48.714;9.386;2023-04-28T03:04:22;13.70;64.80
44851;DHT22;30583;48.714;9.386;2023-04-28T03:06:48;13.60;65.30
44851;DHT22;30583;48.714;9.386;2023-04-28T03:09:14;13.70;65.60
44851;DHT22;30583;48.714;9.386;2023-04-28T03:11:40;13.50;65.90
44851;DHT22;30583;48.714;9.386;2023-04-28T03:14:05;13.40;66.90
44851;DHT22;30583;48.714;9.386;2023-04-28T03:16:31;13.60;66.70
44851;DHT22;30583;48.714;9.386;2023-04-28T03:18:57;13.60;67.30
44851;DHT22;30583;48.714;9.386;2023-04-28T03:21:23;13.40;67.90
44851;DHT22;30583;48.714;9.386;2023-04-28T03:23:51;13.50;67.60
44851;DHT22;30583;48.714;9.386;2023-04-28T03:26:16;13.70;67.10
44851;DHT22;30583;48.714;9.386;2023-04-28T03:28:42;13.70;67.50
44851;DHT22;30583;48.714;9.386;2023-04-28T03:31:07;13.50;68.00
44851;DHT22;30583;48.714;9.386;2023-04-28T03:33:33;13.70;67.30
44851;DHT22;30583;48.714;9.386;2023-04-28T03:35:58;13.60;67.70
44851;DHT22;30583;48.714;9.386;2023-04-28T03:38:24;13.30;68.40
44851;DHT22;30583;48.714;9.386;2023-04-28T03:40:49;13.50;68.00
44851;DHT22;30583;48.714;9.386;2023-04-28T03:43:15;13.40;67.60
44851;DHT22;30583;48.714;9.386;2023-04-28T03:45:41;13.70;67.40
44851;DHT22;30583;48.714;9.386;2023-04-28T03:48:07;13.70;67.60
44851;DHT22;30583;48.714;9.386;2023-04-28T03:50:32;13.70;67.60
44851;DHT22;30583;48.714;9.386;2023-04-28T03:52:58;13.40;68.10
44851;DHT22;30583;48.714;9.386;2023-04-28T03:55:24;13.70;67.90
44851;DHT22;30583;48.714;9.386;2023-04-28T03:57:50;13.70;68.10
44851;DHT22;30583;48.714;9.386;2023-04-28T04:00:16;13.50;68.90
44851;DHT22;30583;48.714;9.386;2023-04-28T04:02:42;13.40;69.80
44851;DHT22;30583;48.714;9.386;2023-04-28T04:05:07;13.60;69.60
44851;DHT22;30583;48.714;9.386;2023-04-28T04:07:33;13.30;70.80
44851;DHT22;30583;48.714;9.386;2023-04-28T04:09:58;13.40;71.10
44851;DHT22;30583;48.714;9.386;2023-04-28T04:12:24;13.30;71.20
44851;DHT22;30583;48.714;9.386;2023-04-28T04:14:50;13.70;69.40
44851;DHT22;30583;48.714;9.386;2023-04-28T04:17:15;13.50;69.90
44851;DHT22;30583;48.714;9.386;2023-04-28T04:19:41;13.40;70.40
44851;DHT22;30583;48.714;9.386;2023-04-28T04:22:07;13.80;69.50
44851;DHT22;30583;48.714;9.386;2023-04-28T04:24:32;13.80;69.80
44851;DHT22;30583;48.714;9.386;2023-04-28T04:26:58;13.70;70.00
44851;DHT22;30583;48.714;9.386;2023-04-28T04:29:23;13.60;70.50
44851;DHT22;30583;48.714;9.386;2023-04-28T04:31:49;13.70;70.40
44851;DHT22;30583;48.714;9.386;2023-04-28T04:34:14;13.80;70.20
44851;DHT22;30583;48.714;9.386;2023-04-28T04:36:40;14.10;68.80
44851;DHT22;30583;48.714;9.386;2023-04-28T04:39:06;14.30;68.30
44851;DHT22;30583;48.714;9.386;2023-04-28T04:41:31;14.80;66.60
44851;DHT22;30583;48.714;9.386;2023-04-28T04:43:57;14.80;66.00
44851;DHT22;30583;48.714;9.386;2023-04-28T04:46:22;14.20;67.50
44851;DHT22;30583;48.714;9.386;2023-04-28T04:48:48;14.10;68.70
44851;DHT22;30583;48.714;9.386;2023-04-28T04:51:14;14.10;68.80
44851;DHT22;30583;48.714;9.386;2023-04-28T04:53:39;14.70;67.50
44851;DHT22;30583;48.714;9.386;2023-04-28T04:56:05;14.20;68.50
44851;DHT22;30583;48.714;9.386;2023-04-28T04:58:31;13.90;69.40
44851;DHT22;30583;48.714;9.386;2023-04-28T05:00:57;13.70;70.00
44851;DHT22;30583;48.714;9.386;2023-04-28T05:03:22;13.40;70.80
44851;DHT22;30583;48.714;9.386;2023-04-28T05:05:48;13.30;71.50
44851;DHT22;30583;48.714;9.386;2023-04-28T05:08:13;13.20;71.70
44851;DHT22;30583;48.714;9.386;2023-04-28T05:10:39;13.40;71.70
44851;DHT22;30583;48.714;9.386;2023-04-28T05:13:05;13.20;72.60
44851;DHT22;30583;48.714;9.386;2023-04-28T05:15:31;13.40;72.70
44851;DHT22;30583;48.714;9.386;2023-04-28T05:17:57;13.30;72.80
44851;DHT22;30583;48.714;9.386;2023-04-28T05:20:23;13.30;73.10
44851;DHT22;30583;48.714;9.386;2023-04-28T05:22:49;13.30;73.80
44851;DHT22;30583;48.714;9.386;2023-04-28T05:25:15;13.20;74.20
44851;DHT22;30583;48.714;9.386;2023-04-28T05:27:40;13.40;74.70
44851;DHT22;30583;48.714;9.386;2023-04-28T05:30:07;13.40;75.00
44851;DHT22;30583;48.714;9.386;2023-04-28T05:32:34;13.40;75.90
44851;DHT22;30583;48.714;9.386;2023-04-28T05:35:25;13.50;76.10
44851;DHT22;30583;48.714;9.386;2023-04-28T05:40:26;13.50;76.50
44851;DHT22;30583;48.714;9.386;2023-04-28T05:42:53;14.50;73.60
44851;DHT22;30583;48.714;9.386;2023-04-28T05:45:18;14.10;73.50
44851;DHT22;30583;48.714;9.386;2023-04-28T05:47:44;13.50;75.10
44851;DHT22;30583;48.714;9.386;2023-04-28T05:50:09;13.60;75.20
44851;DHT22;30583;48.714;9.386;2023-04-28T05:52:35;13.50;75.80
44851;DHT22;30583;48.714;9.386;2023-04-28T05:55:01;13.60;75.70
44851;DHT22;30583;48.714;9.386;2023-04-28T05:57:26;13.60;75.10
44851;DHT22;30583;48.714;9.386;2023-04-28T05:59:53;13.70;74.90
44851;DHT22;30583;48.714;9.386;2023-04-28T06:02:39;13.90;74.40
44851;DHT22;30583;48.714;9.386;2023-04-28T06:05:30;14.00;74.30
44851;DHT22;30583;48.714;9.386;2023-04-28T06:08:15;13.70;75.20
44851;DHT22;30583;48.714;9.386;2023-04-28T06:11:05;13.20;76.70
44851;DHT22;30583;48.714;9.386;2023-04-28T06:13:55;13.20;76.50
44851;DHT22;30583;48.714;9.386;2023-04-28T06:16:46;13.20;76.50
44851;DHT22;30583;48.714;9.386;2023-04-28T06:36:44;13.50;77.40
44851;DHT22;30583;48.714;9.386;2023-04-28T06:39:10;13.60;77.40
44851;DHT22;30583;48.714;9.386;2023-04-28T06:41:35;13.00;78.80
44851;DHT22;30583;48.714;9.386;2023-04-28T06:44:01;13.40;78.30
44851;DHT22;30583;48.714;9.386;2023-04-28T06:46:26;13.60;78.20
44851;DHT22;30583;48.714;9.386;2023-04-28T06:48:52;13.70;78.40
44851;DHT22;30583;48.714;9.386;2023-04-28T06:51:17;13.50;78.80
44851;DHT22;30583;48.714;9.386;2023-04-28T06:53:43;13.50;78.60
44851;DHT22;30583;48.714;9.386;2023-04-28T06:56:08;13.40;79.40
44851;DHT22;30583;48.714;9.386;2023-04-28T06:58:34;13.20;79.80
44851;DHT22;30583;48.714;9.386;2023-04-28T07:00:59;13.10;80.60
44851;DHT22;30583;48.714;9.386;2023-04-28T07:03:25;13.20;80.40
44851;DHT22;30583;48.714;9.386;2023-04-28T07:05:51;13.30;80.40
44851;DHT22;30583;48.714;9.386;2023-04-28T07:08:17;13.30;80.20
44851;DHT22;30583;48.714;9.386;2023-04-28T07:10:43;13.50;79.80
44851;DHT22;30583;48.714;9.386;2023-04-28T07:13:08;13.30;80.80
44851;DHT22;30583;48.714;9.386;2023-04-28T07:15:34;13.30;80.90
44851;DHT22;30583;48.714;9.386;2023-04-28T07:17:59;13.70;80.10
44851;DHT22;30583;48.714;9.386;2023-04-28T07:20:25;13.70;80.30
44851;DHT22;30583;48.714;9.386;2023-04-28T07:22:51;13.50;80.60
44851;DHT22;30583;48.714;9.386;2023-04-28T07:25:16;13.50;80.60
44851;DHT22;30583;48.714;9.386;2023-04-28T07:27:42;14.10;77.90
44851;DHT22;30583;48.714;9.386;2023-04-28T07:30:08;14.50;76.20
44851;DHT22;30583;48.714;9.386;2023-04-28T07:32:33;14.30;77.20
44851;DHT22;30583;48.714;9.386;2023-04-28T07:34:59;14.50;76.60
44851;DHT22;30583;48.714;9.386;2023-04-28T07:37:24;14.30;77.80
44851;DHT22;30583;48.714;9.386;2023-04-28T07:39:50;14.30;77.50
44851;DHT22;30583;48.714;9.386;2023-04-28T07:42:16;14.40;77.30
44851;DHT22;30583;48.714;9.386;2023-04-28T07:44:43;14.30;77.40
44851;DHT22;30583;48.714;9.386;2023-04-28T07:47:08;14.50;76.60
44851;DHT22;30583;48.714;9.386;2023-04-28T07:49:35;14.70;75.60
44851;DHT22;30583;48.714;9.386;2023-04-28T07:52:00;14.90;75.00
44851;DHT22;30583;48.714;9.386;2023-04-28T07:54:27;14.70;75.80
44851;DHT22;30583;48.714;9.386;2023-04-28T07:56:52;14.80;75.70
44851;DHT22;30583;48.714;9.386;2023-04-28T07:59:18;14.80;76.40
44851;DHT22;30583;48.714;9.386;2023-04-28T08:01:43;14.80;75.90
44851;DHT22;30583;48.714;9.386;2023-04-28T08:04:09;14.90;75.20
44851;DHT22;30583;48.714;9.386;2023-04-28T08:06:36;14.80;75.60
44851;DHT22;30583;48.714;9.386;2023-04-28T08:09:02;15.10;75.00
44851;DHT22;30583;48.714;9.386;2023-04-28T08:11:30;15.10;75.20
44851;DHT22;30583;48.714;9.386;2023-04-28T08:13:55;15.20;74.90
44851;DHT22;30583;48.714;9.386;2023-04-28T08:16:26;15.00;76.10
44851;DHT22;30583;48.714;9.386;2023-04-28T08:18:51;15.10;75.20
44851;DHT22;30583;48.714;9.386;2023-04-28T08:21:17;15.30;75.10
44851;DHT22;30583;48.714;9.386;2023-04-28T08:23:42;15.20;76.30
44851;DHT22;30583;48.714;9.386;2023-04-28T08:26:08;15.10;76.00
44851;DHT22;30583;48.714;9.386;2023-04-28T08:28:34;15.20;76.20
44851;DHT22;30583;48.714;9.386;2023-04-28T08:30:59;15.00;77.00
44851;DHT22;30583;48.714;9.386;2023-04-28T08:33:25;15.00;77.00
44851;DHT22;30583;48.714;9.386;2023-04-28T08:35:51;14.90;77.50
44851;DHT22;30583;48.714;9.386;2023-04-28T08:38:16;15.10;76.30
44851;DHT22;30583;48.714;9.386;2023-04-28T08:40:42;15.20;75.90
44851;DHT22;30583;48.714;9.386;2023-04-28T08:43:08;15.10;77.30
44851;DHT22;30583;48.714;9.386;2023-04-28T08:45:41;15.10;77.70
44851;DHT22;30583;48.714;9.386;2023-04-28T08:48:17;14.80;79.90
44851;DHT22;30583;48.714;9.386;2023-04-28T08:50:51;15.00;78.40
44851;DHT22;30583;48.714;9.386;2023-04-28T08:53:26;15.10;77.60
44851;DHT22;30583;48.714;9.386;2023-04-28T08:55:56;15.10;78.50
44851;DHT22;30583;48.714;9.386;2023-04-28T08:58:23;15.00;79.20
44851;DHT22;30583;48.714;9.386;2023-04-28T09:00:50;14.80;80.90
44851;DHT22;30583;48.714;9.386;2023-04-28T09:03:16;15.30;78.80
44851;DHT22;30583;48.714;9.386;2023-04-28T09:05:42;15.20;78.70
44851;DHT22;30583;48.714;9.386;2023-04-28T09:08:08;15.30;78.60
44851;DHT22;30583;48.714;9.386;2023-04-28T09:10:36;15.20;79.40
44851;DHT22;30583;48.714;9.386;2023-04-28T09:13:02;15.40;77.30
44851;DHT22;30583;48.714;9.386;2023-04-28T09:17:59;15.40;77.30
44851;DHT22;30583;48.714;9.386;2023-04-28T09:20:27;15.70;76.30
44851;DHT22;30583;48.714;9.386;2023-04-28T09:22:54;15.50;78.10
44851;DHT22;30583;48.714;9.386;2023-04-28T09:25:21;15.30;78.20
44851;DHT22;30583;48.714;9.386;2023-04-28T09:27:51;15.50;77.90
44851;DHT22;30583;48.714;9.386;2023-04-28T09:30:16;15.60;77.60
44851;DHT22;30583;48.714;9.386;2023-04-28T09:32:42;15.40;78.70
44851;DHT22;30583;48.714;9.386;2023-04-28T09:35:08;15.40;78.60
44851;DHT22;30583;48.714;9.386;2023-04-28T09:37:34;15.20;79.80
44851;DHT22;30583;48.714;9.386;2023-04-28T09:40:08;15.00;79.80
44851;DHT22;30583;48.714;9.386;2023-04-28T09:42:41;15.50;77.30
44851;DHT22;30583;48.714;9.386;2023-04-28T09:45:11;15.70;76.80
44851;DHT22;30583;48.714;9.386;2023-04-28T09:47:42;15.70;77.50
44851;DHT22;30583;48.714;9.386;2023-04-28T09:50:10;15.40;78.40
44851;DHT22;30583;48.714;9.386;2023-04-28T09:52:40;15.60;77.80
44851;DHT22;30583;48.714;9.386;2023-04-28T09:55:06;15.50;77.80
44851;DHT22;30583;48.714;9.386;2023-04-28T09:57:36;15.80;76.80
44851;DHT22;30583;48.714;9.386;2023-04-28T10:00:03;15.70;77.40
44851;DHT22;30583;48.714;9.386;2023-04-28T10:02:31;15.70;78.60
44851;DHT22;30583;48.714;9.386;2023-04-28T10:04:58;15.70;77.90
44851;DHT22;30583;48.714;9.386;2023-04-28T10:07:26;15.40;79.50
44851;DHT22;30583;48.714;9.386;2023-04-28T10:09:52;15.50;79.80
44851;DHT22;30583;48.714;9.386;2023-04-28T10:12:22;15.70;78.10
44851;DHT22;30583;48.714;9.386;2023-04-28T10:14:49;16.10;77.00
44851;DHT22;30583;48.714;9.386;2023-04-28T10:17:16;16.20;76.60
44851;DHT22;30583;48.714;9.386;2023-04-28T10:19:46;16.40;76.60
44851;DHT22;30583;48.714;9.386;2023-04-28T10:22:18;16.40;77.30
44851;DHT22;30583;48.714;9.386;2023-04-28T10:27:29;16.40;78.20
44851;DHT22;30583;48.714;9.386;2023-04-28T10:30:15;16.50;77.50
44851;DHT22;30583;48.714;9.386;2023-04-28T10:32:42;16.60;77.30
44851;DHT22;30583;48.714;9.386;2023-04-28T10:38:08;16.00;81.40
44851;DHT22;30583;48.714;9.386;2023-04-28T10:40:35;16.10;80.10
44851;DHT22;30583;48.714;9.386;2023-04-28T10:43:01;16.30;78.70
44851;DHT22;30583;48.714;9.386;2023-04-28T10:48:23;16.00;81.80
44851;DHT22;30583;48.714;9.386;2023-04-28T10:56:21;16.40;80.40
44851;DHT22;30583;48.714;9.386;2023-04-28T10:58:56;16.30;80.40
44851;DHT22;30583;48.714;9.386;2023-04-28T11:01:27;16.60;79.80
44851;DHT22;30583;48.714;9.386;2023-04-28T11:04:07;16.60;78.70
44851;DHT22;30583;48.714;9.386;2023-04-28T11:06:41;16.70;79.00
44851;DHT22;30583;48.714;9.386;2023-04-28T11:17:03;17.00;79.70
44851;DHT22;30583;48.714;9.386;2023-04-28T11:21:59;17.20;78.30
44851;DHT22;30583;48.714;9.386;2023-04-28T11:24:27;17.30;80.20
44851;DHT22;30583;48.714;9.386;2023-04-28T11:26:57;17.40;79.60
44851;DHT22;30583;48.714;9.386;2023-04-28T11:29:34;17.20;81.90
44851;DHT22;30583;48.714;9.386;2023-04-28T11:32:07;17.10;81.60
44851;DHT22;30583;48.714;9.386;2023-04-28T11:34:34;17.10;82.10
44851;DHT22;30583;48.714;9.386;2023-04-28T11:37:01;17.20;82.10
44851;DHT22;30583;48.714;9.386;2023-04-28T11:39:28;17.20;82.10
44851;DHT22;30583;48.714;9.386;2023-04-28T11:41:55;17.10;81.90
44851;DHT22;30583;48.714;9.386;2023-04-28T11:44:23;17.00;82.20
44851;DHT22;30583;48.714;9.386;2023-04-28T11:46:50;17.00;82.00
44851;DHT22;30583;48.714;9.386;2023-04-28T11:49:19;17.00;81.40
44851;DHT22;30583;48.714;9.386;2023-04-28T11:51:46;17.00;81.20
44851;DHT22;30583;48.714;9.386;2023-04-28T11:54:22;17.10;81.20
44851;DHT22;30583;48.714;9.386;2023-04-28T11:56:48;17.20;81.50
44851;DHT22;30583;48.714;9.386;2023-04-28T11:59:14;17.20;80.90
44851;DHT22;30583;48.714;9.386;2023-04-28T12:01:50;17.20;80.30
44851;DHT22;30583;48.714;9.386;2023-04-28T12:04:37;17.10;80.30
44851;DHT22;30583;48.714;9.386;2023-04-28T12:07:05;17.10;80.60
44851;DHT22;30583;48.714;9.386;2023-04-28T12:09:32;17.10;81.00
44851;DHT22;30583;48.714;9.386;2023-04-28T12:12:00;17.10;80.60
44851;DHT22;30583;48.714;9.386;2023-04-28T12:14:27;17.10;81.40
44851;DHT22;30583;48.714;9.386;2023-04-28T12:16:54;17.10;81.30
44851;DHT22;30583;48.714;9.386;2023-04-28T12:19:21;17.00;81.10
44851;DHT22;30583;48.714;9.386;2023-04-28T12:22:01;17.00;80.70
44851;DHT22;30583;48.714;9.386;2023-04-28T12:24:27;17.10;81.20
44851;DHT22;30583;48.714;9.386;2023-04-28T12:26:53;17.20;80.80
44851;DHT22;30583;48.714;9.386;2023-04-28T12:29:39;17.20;81.00
44851;DHT22;30583;48.714;9.386;2023-04-28T12:32:06;17.20;80.50
44851;DHT22;30583;48.714;9.386;2023-04-28T12:34:32;17.20;80.90
44851;DHT22;30583;48.714;9.386;2023-04-28T12:36:59;17.20;81.50
44851;DHT22;30583;48.714;9.386;2023-04-28T12:39:26;17.20;81.70
44851;DHT22;30583;48.714;9.386;2023-04-28T12:41:52;17.20;81.60
44851;DHT22;30583;48.714;9.386;2023-04-28T12:44:19;17.20;81.70
44851;DHT22;30583;48.714;9.386;2023-04-28T12:46:45;17.20;82.00
44851;DHT22;30583;48.714;9.386;2023-04-28T12:49:11;17.20;81.60
44851;DHT22;30583;48.714;9.386;2023-04-28T12:51:37;17.20;81.80
44851;DHT22;30583;48.714;9.386;2023-04-28T12:54:04;17.30;81.60
44851;DHT22;30583;48.714;9.386;2023-04-28T12:56:29;17.20;81.50
44851;DHT22;30583;48.714;9.386;2023-04-28T12:58:55;17.40;81.30
44851;DHT22;30583;48.714;9.386;2023-04-28T13:01:20;17.40;80.70
44851;DHT22;30583;48.714;9.386;2023-04-28T13:03:46;17.40;81.30
44851;DHT22;30583;48.714;9.386;2023-04-28T13:06:12;17.50;81.40
44851;DHT22;30583;48.714;9.386;2023-04-28T13:08:38;17.50;80.00
44851;DHT22;30583;48.714;9.386;2023-04-28T13:11:04;17.50;80.70
44851;DHT22;30583;48.714;9.386;2023-04-28T13:13:30;17.50;79.90
44851;DHT22;30583;48.714;9.386;2023-04-28T13:15:55;17.60;79.30
44851;DHT22;30583;48.714;9.386;2023-04-28T13:18:22;17.70;79.50
44851;DHT22;30583;48.714;9.386;2023-04-28T13:20:48;17.60;79.80
44851;DHT22;30583;48.714;9.386;2023-04-28T13:23:13;17.60;79.20
44851;DHT22;30583;48.714;9.386;2023-04-28T13:25:39;17.70;78.90
44851;DHT22;30583;48.714;9.386;2023-04-28T13:28:05;17.60;79.00
44851;DHT22;30583;48.714;9.386;2023-04-28T13:30:30;17.40;80.10
44851;DHT22;30583;48.714;9.386;2023-04-28T13:32:56;17.00;81.90
44851;DHT22;30583;48.714;9.386;2023-04-28T13:35:23;17.20;82.70
44851;DHT22;30583;48.714;9.386;2023-04-28T13:37:48;17.30;82.80
44851;DHT22;30583;48.714;9.386;2023-04-28T13:40:14;17.40;81.70
44851;DHT22;30583;48.714;9.386;2023-04-28T13:42:39;17.60;80.40
44851;DHT22;30583;48.714;9.386;2023-04-28T13:45:05;17.70;80.60
44851;DHT22;30583;48.714;9.386;2023-04-28T13:47:31;17.70;80.00
44851;DHT22;30583;48.714;9.386;2023-04-28T13:49:57;17.80;79.50
44851;DHT22;30583;48.714;9.386;2023-04-28T13:52:24;17.90;80.00
44851;DHT22;30583;48.714;9.386;2023-04-28T13:54:50;17.80;79.10
44851;DHT22;30583;48.714;9.386;2023-04-28T13:57:16;17.80;79.00
44851;DHT22;30583;48.714;9.386;2023-04-28T13:59:42;17.70;78.70
44851;DHT22;30583;48.714;9.386;2023-04-28T14:02:08;17.60;79.70
44851;DHT22;30583;48.714;9.386;2023-04-28T14:04:36;17.40;81.00
44851;DHT22;30583;48.714;9.386;2023-04-28T14:07:01;17.30;80.00
44851;DHT22;30583;48.714;9.386;2023-04-28T14:09:27;17.30;82.10
44851;DHT22;30583;48.714;9.386;2023-04-28T14:11:52;17.20;82.20
44851;DHT22;30583;48.714;9.386;2023-04-28T14:14:21;17.30;81.20
44851;DHT22;30583;48.714;9.386;2023-04-28T14:16:47;17.40;81.70
44851;DHT22;30583;48.714;9.386;2023-04-28T14:19:13;17.30;81.00
44851;DHT22;30583;48.714;9.386;2023-04-28T14:21:42;17.40;81.60
44851;DHT22;30583;48.714;9.386;2023-04-28T14:24:07;17.40;81.10
44851;DHT22;30583;48.714;9.386;2023-04-28T14:26:34;17.40;81.90
44851;DHT22;30583;48.714;9.386;2023-04-28T14:29:00;17.40;80.50
44851;DHT22;30583;48.714;9.386;2023-04-28T14:31:26;17.70;77.00
44851;DHT22;30583;48.714;9.386;2023-04-28T14:33:52;17.50;80.50
44851;DHT22;30583;48.714;9.386;2023-04-28T14:36:18;17.40;78.30
44851;DHT22;30583;48.714;9.386;2023-04-28T14:38:44;17.40;80.60
44851;DHT22;30583;48.714;9.386;2023-04-28T14:41:10;17.30;81.90
44851;DHT22;30583;48.714;9.386;2023-04-28T14:43:36;17.30;82.30
44851;DHT22;30583;48.714;9.386;2023-04-28T14:46:02;17.40;82.30
44851;DHT22;30583;48.714;9.386;2023-04-28T14:48:28;17.40;81.40
44851;DHT22;30583;48.714;9.386;2023-04-28T14:50:53;17.50;80.30
44851;DHT22;30583;48.714;9.386;2023-04-28T14:53:19;17.50;80.50
44851;DHT22;30583;48.714;9.386;2023-04-28T14:55:45;17.50;80.40
44851;DHT22;30583;48.714;9.386;2023-04-28T14:58:10;17.70;79.90
44851;DHT22;30583;48.714;9.386;2023-04-28T15:00:36;17.70;79.80
44851;DHT22;30583;48.714;9.386;2023-04-28T15:03:02;17.60;79.90
44851;DHT22;30583;48.714;9.386;2023-04-28T15:05:28;17.80;79.70
44851;DHT22;30583;48.714;9.386;2023-04-28T15:07:54;17.70;80.70
44851;DHT22;30583;48.714;9.386;2023-04-28T15:10:19;17.70;80.70
44851;DHT22;30583;48.714;9.386;2023-04-28T15:12:46;17.60;80.70
44851;DHT22;30583;48.714;9.386;2023-04-28T15:15:13;17.60;80.30
44851;DHT22;30583;48.714;9.386;2023-04-28T15:17:38;17.50;80.10
44851;DHT22;30583;48.714;9.386;2023-04-28T15:20:05;17.40;80.40
44851;DHT22;30583;48.714;9.386;2023-04-28T15:22:31;17.50;80.00
44851;DHT22;30583;48.714;9.386;2023-04-28T15:24:56;17.30;80.20
44851;DHT22;30583;48.714;9.386;2023-04-28T15:27:22;17.20;80.50
44851;DHT22;30583;48.714;9.386;2023-04-28T15:29:48;17.00;80.50
44851;DHT22;30583;48.714;9.386;2023-04-28T15:32:14;17.10;80.40
44851;DHT22;30583;48.714;9.386;2023-04-28T15:34:40;17.10;80.20
44851;DHT22;30583;48.714;9.386;2023-04-28T15:40:06;16.90;81.80
44851;DHT22;30583;48.714;9.386;2023-04-28T15:42:32;17.20;80.70
44851;DHT22;30583;48.714;9.386;2023-04-28T15:44:58;17.30;80.20
44851;DHT22;30583;48.714;9.386;2023-04-28T15:47:24;17.30;80.70
44851;DHT22;30583;48.714;9.386;2023-04-28T15:49:49;17.20;80.80
44851;DHT22;30583;48.714;9.386;2023-04-28T15:52:15;17.30;81.20
44851;DHT22;30583;48.714;9.386;2023-04-28T15:54:41;17.20;80.90
44851;DHT22;30583;48.714;9.386;2023-04-28T15:57:07;17.30;80.70
44851;DHT22;30583;48.714;9.386;2023-04-28T15:59:33;17.30;81.10
44851;DHT22;30583;48.714;9.386;2023-04-28T16:02:00;17.20;81.80
44851;DHT22;30583;48.714;9.386;2023-04-28T16:04:25;17.30;81.10
44851;DHT22;30583;48.714;9.386;2023-04-28T16:06:51;17.20;80.50
44851;DHT22;30583;48.714;9.386;2023-04-28T16:09:17;17.20;81.10
44851;DHT22;30583;48.714;9.386;2023-04-28T16:11:43;17.30;80.90
44851;DHT22;30583;48.714;9.386;2023-04-28T16:14:09;17.30;80.50
44851;DHT22;30583;48.714;9.386;2023-04-28T16:16:34;17.20;80.30
44851;DHT22;30583;48.714;9.386;2023-04-28T16:19:00;17.20;81.50
44851;DHT22;30583;48.714;9.386;2023-04-28T16:21:25;17.10;81.60